Time;durP1;ratioP1;P1;durP2;ratioP2;P2;SDS_P1;SDS_P2;PMS_P1;PMS_P2;Temp;Humidity;BMP_temperature;BMP_pressure;BME280_temperature;BME280_humidity;BME280_pressure;Samples;Min_cycle;Max_cycle;Signal;HPM_P1;HPM_P2
2021/09/21 00:01:34;;;;;;;12.30;7.05;;;;;;;;;;4924036;29;20026;-85
2021/09/21 00:04:26;;;;;;;12.57;7.95;;;;;;;;;;4913450;29;20024;-87
2021/09/21 00:07:12;;;;;;;10.00;7.45;;;;;;;;;;4924092;29;20054;-85
2021/09/21 00:09:57;;;;;;;9.13;6.60;;;;;;;;;;4919066;29;20075;-85
2021/09/21 00:12:43;;;;;;;10.70;7.55;;;;;;;;;;4922520;29;20063;-85
2021/09/21 00:15:28;;;;;;;14.38;7.88;;;;;;;;;;4918450;29;20086;-84
2021/09/21 00:18:13;;;;;;;10.40;7.15;;;;;;;;;;4914745;29;20030;-83
2021/09/21 00:20:59;;;;;;;9.63;7.78;;;;;;;;;;4924647;29;20028;-85
2021/09/21 00:23:44;;;;;;;13.02;7.50;;;;;;;;;;4918973;29;20032;-86
2021/09/21 00:26:29;;;;;;;12.50;7.03;;;;;;;;;;4917151;29;20087;-84
2021/09/21 00:29:15;;;;;;;14.48;8.68;;;;;;;;;;4923852;29;20143;-84
2021/09/21 00:32:01;;;;;;;11.80;8.10;;;;;;;;;;4916497;29;20028;-84
2021/09/21 00:34:46;;;;;;;10.70;8.27;;;;;;;;;;4920701;29;20142;-85
2021/09/21 00:37:34;;;;;;;9.63;6.53;;;;;;;;;;4911232;29;20031;-84
2021/09/21 00:40:19;;;;;;;11.20;7.82;;;;;;;;;;4917492;29;20031;-85
2021/09/21 00:43:05;;;;;;;13.20;8.15;;;;;;;;;;4919367;29;20110;-85
2021/09/21 00:45:52;;;;;;;11.85;7.78;;;;;;;;;;4918476;29;20034;-86
2021/09/21 00:48:37;;;;;;;16.95;9.10;;;;;;;;;;4910164;29;20036;-84
2021/09/21 00:51:24;;;;;;;11.27;7.93;;;;;;;;;;4923041;29;20024;-85
2021/09/21 00:54:09;;;;;;;9.68;7.25;;;;;;;;;;4913828;29;20031;-85
2021/09/21 00:56:56;;;;;;;11.43;8.40;;;;;;;;;;4921621;29;20036;-85
2021/09/21 00:59:41;;;;;;;12.75;8.40;;;;;;;;;;4907758;29;20038;-85
2021/09/21 01:02:26;;;;;;;12.15;9.07;;;;;;;;;;4918711;29;20130;-85
2021/09/21 01:05:12;;;;;;;13.27;8.90;;;;;;;;;;4921246;29;20070;-85
2021/09/21 01:07:57;;;;;;;12.98;8.88;;;;;;;;;;4916629;29;20368;-85
2021/09/21 01:10:43;;;;;;;11.88;9.00;;;;;;;;;;4929456;29;20084;-86
2021/09/21 01:13:28;;;;;;;12.18;9.05;;;;;;;;;;4932589;29;20478;-85
2021/09/21 01:16:13;;;;;;;15.05;9.20;;;;;;;;;;4917520;29;20375;-86
2021/09/21 01:18:58;;;;;;;11.30;9.48;;;;;;;;;;4914742;29;20063;-86
2021/09/21 01:21:44;;;;;;;11.77;9.00;;;;;;;;;;4906558;29;20038;-84
2021/09/21 01:24:29;;;;;;;12.73;8.90;;;;;;;;;;4904969;29;20551;-86
2021/09/21 01:27:14;;;;;;;12.38;8.77;;;;;;;;;;4925353;29;20035;-84
2021/09/21 01:30:00;;;;;;;16.13;9.30;;;;;;;;;;4901913;29;20031;-86
2021/09/21 01:32:45;;;;;;;14.25;8.73;;;;;;;;;;4915959;29;20032;-85
2021/09/21 01:35:30;;;;;;;10.57;7.43;;;;;;;;;;4902165;29;20039;-85
2021/09/21 01:38:15;;;;;;;12.27;9.05;;;;;;;;;;4937600;29;20019;-86
2021/09/21 01:41:00;;;;;;;11.13;8.40;;;;;;;;;;4911291;29;20110;-85
2021/09/21 01:43:46;;;;;;;12.15;8.43;;;;;;;;;;4926284;29;20047;-85
2021/09/21 01:46:31;;;;;;;16.15;8.90;;;;;;;;;;4927858;29;20595;-86
2021/09/21 01:49:17;;;;;;;14.38;9.32;;;;;;;;;;4919794;29;20640;-86
2021/09/21 01:52:11;;;;;;;14.15;9.55;;;;;;;;;;4916468;29;20462;-86
2021/09/21 01:55:09;;;;;;;13.90;9.00;;;;;;;;;;4929807;29;20078;-85
2021/09/21 02:00:58;;;;;;;10.70;8.60;;;;;;;;;;4916644;29;20019;-85
2021/09/21 02:03:44;;;;;;;10.85;8.68;;;;;;;;;;4905614;29;20020;-86
2021/09/21 02:06:37;;;;;;;11.18;8.68;;;;;;;;;;4910634;29;20028;-86
2021/09/21 02:09:23;;;;;;;11.48;8.32;;;;;;;;;;4933922;29;20027;-86
2021/09/21 02:12:08;;;;;;;10.65;8.80;;;;;;;;;;4915294;29;20020;-86
2021/09/21 02:14:53;;;;;;;11.90;8.98;;;;;;;;;;4902790;29;20091;-85
2021/09/21 02:17:38;;;;;;;11.70;9.38;;;;;;;;;;4917509;29;20031;-86
2021/09/21 02:20:24;;;;;;;10.98;8.85;;;;;;;;;;4911974;29;20034;-86
2021/09/21 02:23:09;;;;;;;10.55;8.02;;;;;;;;;;4919762;29;20027;-86
2021/09/21 02:25:54;;;;;;;10.25;7.80;;;;;;;;;;4915813;29;20035;-84
2021/09/21 02:28:39;;;;;;;12.45;9.35;;;;;;;;;;4933289;29;20035;-84
2021/09/21 02:31:25;;;;;;;12.57;9.63;;;;;;;;;;4917498;29;20103;-85
2021/09/21 02:34:10;;;;;;;12.43;9.73;;;;;;;;;;4913075;29;20034;-85
2021/09/21 02:36:55;;;;;;;12.82;9.25;;;;;;;;;;4921360;29;20095;-85
2021/09/21 02:39:40;;;;;;;14.20;9.35;;;;;;;;;;4922135;29;20031;-85
2021/09/21 02:42:26;;;;;;;11.45;8.95;;;;;;;;;;4923674;29;20043;-84
2021/09/21 02:45:12;;;;;;;13.07;9.23;;;;;;;;;;4900415;29;20118;-85
2021/09/21 02:47:57;;;;;;;11.63;9.23;;;;;;;;;;4895715;29;20445;-85
2021/09/21 02:50:42;;;;;;;10.55;8.65;;;;;;;;;;4903722;29;20379;-84
2021/09/21 02:53:28;;;;;;;11.40;8.55;;;;;;;;;;4905325;29;20616;-85
2021/09/21 02:56:14;;;;;;;10.05;8.55;;;;;;;;;;4905231;29;20024;-85
2021/09/21 02:59:00;;;;;;;11.68;8.45;;;;;;;;;;4908870;29;20115;-85
2021/09/21 03:01:45;;;;;;;12.40;8.82;;;;;;;;;;4908590;29;20495;-85
2021/09/21 03:04:35;;;;;;;12.15;9.32;;;;;;;;;;4898029;29;20036;-86
2021/09/21 03:07:29;;;;;;;14.13;9.27;;;;;;;;;;4904840;29;20501;-86
2021/09/21 03:10:27;;;;;;;11.18;8.80;;;;;;;;;;4894924;29;20020;-85
2021/09/21 03:19:08;;;;;;;13.77;9.15;;;;;;;;;;4897443;29;20384;-85
2021/09/21 03:21:53;;;;;;;16.08;9.30;;;;;;;;;;4900092;29;20039;-85
2021/09/21 03:24:38;;;;;;;12.07;8.77;;;;;;;;;;4910315;29;20083;-86
2021/09/21 03:27:24;;;;;;;15.00;9.50;;;;;;;;;;4902615;29;20028;-85
2021/09/21 03:30:09;;;;;;;10.23;8.27;;;;;;;;;;4898048;29;20439;-85
2021/09/21 03:32:54;;;;;;;12.43;9.25;;;;;;;;;;4908213;29;20024;-86
2021/09/21 03:35:40;;;;;;;12.57;9.00;;;;;;;;;;4900069;29;20141;-85
2021/09/21 03:38:25;;;;;;;11.93;8.60;;;;;;;;;;4909288;29;20039;-85
2021/09/21 03:41:10;;;;;;;11.90;9.32;;;;;;;;;;4896642;29;20122;-86
2021/09/21 03:43:55;;;;;;;11.50;9.75;;;;;;;;;;4907444;29;20106;-86
2021/09/21 03:46:43;;;;;;;12.77;9.85;;;;;;;;;;4923444;29;20151;-85
2021/09/21 03:49:29;;;;;;;13.10;9.02;;;;;;;;;;4917449;29;20023;-85
2021/09/21 03:52:14;;;;;;;11.52;9.43;;;;;;;;;;4929152;29;20027;-85
2021/09/21 03:54:59;;;;;;;12.40;8.75;;;;;;;;;;4940586;29;20024;-85
2021/09/21 03:57:44;;;;;;;12.82;9.15;;;;;;;;;;4943329;29;20034;-84
2021/09/21 04:00:29;;;;;;;12.63;8.95;;;;;;;;;;4919024;29;20031;-84
2021/09/21 04:03:15;;;;;;;13.68;10.48;;;;;;;;;;4931706;29;20527;-85
2021/09/21 04:06:00;;;;;;;12.07;9.38;;;;;;;;;;4920663;29;20090;-85
2021/09/21 04:08:49;;;;;;;14.82;9.98;;;;;;;;;;4930831;29;20028;-85
2021/09/21 04:11:34;;;;;;;12.17;9.37;;;;;;;;;;4913395;29;20115;-85
2021/09/21 04:14:19;;;;;;;12.35;9.15;;;;;;;;;;4925576;29;20263;-85
2021/09/21 04:17:04;;;;;;;11.90;9.23;;;;;;;;;;4902333;29;20032;-85
2021/09/21 04:19:50;;;;;;;12.95;8.70;;;;;;;;;;4927680;29;20047;-84
2021/09/21 04:22:36;;;;;;;11.13;8.80;;;;;;;;;;4920154;29;20118;-85
2021/09/21 04:25:22;;;;;;;13.38;9.73;;;;;;;;;;4921521;29;20035;-84
2021/09/21 04:28:07;;;;;;;22.67;9.93;;;;;;;;;;4927929;29;20066;-84
2021/09/21 04:30:53;;;;;;;12.52;9.55;;;;;;;;;;4918596;29;20050;-85
2021/09/21 04:33:39;;;;;;;12.82;9.77;;;;;;;;;;4911893;29;20464;-86
2021/09/21 04:36:25;;;;;;;15.82;9.75;;;;;;;;;;4928289;29;20071;-85
2021/09/21 04:39:10;;;;;;;11.57;10.05;;;;;;;;;;4919342;29;20066;-84
2021/09/21 04:41:57;;;;;;;11.75;9.52;;;;;;;;;;4935913;29;20023;-85
2021/09/21 04:44:42;;;;;;;14.75;10.27;;;;;;;;;;4908640;29;20056;-85
2021/09/21 04:47:27;;;;;;;13.30;10.40;;;;;;;;;;4901143;29;20450;-85
2021/09/21 04:50:12;;;;;;;11.80;9.68;;;;;;;;;;4902861;29;20392;-86
2021/09/21 04:52:58;;;;;;;13.23;8.98;;;;;;;;;;4910450;29;20490;-86
2021/09/21 04:55:43;;;;;;;14.27;10.02;;;;;;;;;;4906449;29;20058;-85
2021/09/21 04:58:28;;;;;;;12.50;8.82;;;;;;;;;;4890685;29;20039;-85
2021/09/21 05:01:13;;;;;;;14.65;10.00;;;;;;;;;;4907423;29;20024;-85
2021/09/21 05:03:58;;;;;;;12.70;9.32;;;;;;;;;;4903147;29;20032;-85
2021/09/21 05:06:44;;;;;;;11.70;9.52;;;;;;;;;;4898761;29;20056;-85
2021/09/21 05:09:29;;;;;;;12.90;9.15;;;;;;;;;;4900158;29;20024;-85
2021/09/21 05:12:14;;;;;;;16.88;12.25;;;;;;;;;;4893708;29;20020;-86
2021/09/21 05:14:59;;;;;;;13.45;10.00;;;;;;;;;;4892220;29;20031;-85
2021/09/21 05:17:45;;;;;;;11.07;9.18;;;;;;;;;;4887137;29;20038;-86
2021/09/21 05:20:30;;;;;;;13.95;10.07;;;;;;;;;;4906342;29;20043;-89
2021/09/21 05:23:15;;;;;;;14.63;9.82;;;;;;;;;;4895627;29;20458;-86
2021/09/21 05:26:00;;;;;;;14.90;10.05;;;;;;;;;;4912536;29;20423;-86
2021/09/21 05:28:46;;;;;;;11.70;10.05;;;;;;;;;;4897680;29;20115;-87
2021/09/21 05:31:31;;;;;;;14.77;9.90;;;;;;;;;;4904252;29;20028;-88
2021/09/21 05:34:16;;;;;;;12.32;9.35;;;;;;;;;;4895081;29;20040;-86
2021/09/21 05:37:02;;;;;;;11.57;9.15;;;;;;;;;;4894770;29;20036;-87
2021/09/21 05:39:47;;;;;;;13.27;9.60;;;;;;;;;;4899187;29;20040;-86
2021/09/21 05:42:34;;;;;;;15.82;9.32;;;;;;;;;;4904645;29;20058;-87
2021/09/21 05:45:19;;;;;;;11.70;9.48;;;;;;;;;;4904072;29;20048;-87
2021/09/21 05:48:04;;;;;;;11.63;9.00;;;;;;;;;;4901779;29;20039;-88
2021/09/21 05:50:50;;;;;;;12.50;9.68;;;;;;;;;;4899103;29;20372;-88
2021/09/21 05:53:35;;;;;;;13.23;9.65;;;;;;;;;;4911567;29;20024;-84
2021/09/21 05:56:21;;;;;;;13.75;10.48;;;;;;;;;;4914119;29;20099;-87
2021/09/21 05:59:07;;;;;;;14.50;9.52;;;;;;;;;;4906180;29;20040;-85
2021/09/21 06:01:53;;;;;;;12.15;9.20;;;;;;;;;;4905272;29;20028;-86
2021/09/21 06:04:38;;;;;;;15.20;10.23;;;;;;;;;;4897158;29;20033;-86
2021/09/21 06:07:23;;;;;;;12.05;8.60;;;;;;;;;;4903979;29;20028;-84
2021/09/21 06:10:08;;;;;;;13.07;9.38;;;;;;;;;;4908304;29;20076;-88
2021/09/21 06:12:54;;;;;;;12.73;8.73;;;;;;;;;;4909299;29;20024;-88
2021/09/21 06:15:40;;;;;;;12.65;9.05;;;;;;;;;;4907883;29;20032;-88
2021/09/21 06:18:25;;;;;;;11.48;8.45;;;;;;;;;;4918193;29;20064;-88
2021/09/21 06:21:11;;;;;;;11.65;9.57;;;;;;;;;;4909654;29;20025;-90
2021/09/21 06:23:59;;;;;;;15.35;8.65;;;;;;;;;;4910278;29;20693;-86
2021/09/21 06:26:44;;;;;;;11.82;9.30;;;;;;;;;;4902103;29;20146;-85
2021/09/21 06:29:29;;;;;;;12.48;9.68;;;;;;;;;;4901498;29;20032;-85
2021/09/21 06:32:15;;;;;;;12.90;9.38;;;;;;;;;;4915362;29;20079;-88
2021/09/21 06:35:00;;;;;;;17.23;10.23;;;;;;;;;;4925499;29;20480;-89
2021/09/21 06:37:46;;;;;;;21.85;13.95;;;;;;;;;;4909800;29;20036;-86
2021/09/21 06:40:31;;;;;;;14.98;11.45;;;;;;;;;;4912757;29;20373;-87
2021/09/21 06:43:17;;;;;;;13.13;9.85;;;;;;;;;;4918868;29;20039;-88
2021/09/21 06:46:02;;;;;;;13.55;10.32;;;;;;;;;;4939633;29;20019;-84
2021/09/21 06:48:47;;;;;;;14.32;9.55;;;;;;;;;;4915879;29;20043;-85
2021/09/21 06:51:33;;;;;;;16.67;12.35;;;;;;;;;;4918770;29;20024;-87
2021/09/21 06:54:18;;;;;;;13.57;10.13;;;;;;;;;;4920348;29;20027;-79
2021/09/21 06:57:03;;;;;;;18.90;10.75;;;;;;;;;;4920232;29;20547;-89
2021/09/21 06:59:49;;;;;;;12.73;9.93;;;;;;;;;;4925320;29;20253;-88
2021/09/21 07:02:34;;;;;;;11.60;8.95;;;;;;;;;;4918752;29;20060;-90
2021/09/21 07:05:20;;;;;;;13.30;10.60;;;;;;;;;;4924441;29;20059;-86
2021/09/21 07:08:05;;;;;;;13.82;10.73;;;;;;;;;;4900345;29;20048;-85
2021/09/21 07:10:50;;;;;;;11.95;9.35;;;;;;;;;;4916157;29;20035;-87
2021/09/21 07:13:36;;;;;;;11.07;9.13;;;;;;;;;;4918825;29;20043;-87
2021/09/21 07:16:21;;;;;;;15.05;10.10;;;;;;;;;;4921205;29;20051;-92
2021/09/21 07:19:06;;;;;;;12.20;9.93;;;;;;;;;;4926389;29;20028;-92
2021/09/21 07:21:52;;;;;;;13.07;9.85;;;;;;;;;;4925680;29;20038;-91
2021/09/21 07:24:37;;;;;;;24.38;10.25;;;;;;;;;;4921868;29;20059;-92
2021/09/21 07:27:22;;;;;;;11.02;8.70;;;;;;;;;;4927027;29;20012;-91
2021/09/21 07:30:07;;;;;;;12.07;8.70;;;;;;;;;;4918638;29;20086;-89
2021/09/21 07:32:53;;;;;;;20.83;10.30;;;;;;;;;;4921626;29;20035;-91
2021/09/21 07:35:39;;;;;;;14.05;9.52;;;;;;;;;;4911372;29;20038;-88
2021/09/21 07:38:24;;;;;;;12.68;8.63;;;;;;;;;;4919419;29;20086;-89
2021/09/21 07:48:00;;;;;;;11.75;7.65;;;;;;;;;;4850671;29;20137;-91
2021/09/21 07:54:08;;;;;;;12.70;8.00;;;;;;;;;;4784502;29;20043;-90
2021/09/21 07:57:02;;;;;;;16.95;8.65;;;;;;;;;;4783360;29;20513;-90
2021/09/21 08:07:31;;;;;;;10.73;7.22;;;;;;;;;;4758887;30;20036;-92
2021/09/21 08:10:22;;;;;;;12.48;8.90;;;;;;;;;;4762988;30;20031;-93
2021/09/21 08:13:07;;;;;;;11.52;7.07;;;;;;;;;;4860961;29;20112;-93
2021/09/21 08:15:52;;;;;;;11.52;6.93;;;;;;;;;;4882701;29;20476;-92
2021/09/21 08:18:38;;;;;;;8.55;6.38;;;;;;;;;;4889220;29;20111;-89
2021/09/21 08:21:26;;;;;;;9.02;6.97;;;;;;;;;;4892472;29;20551;-85
2021/09/21 08:24:11;;;;;;;10.90;7.03;;;;;;;;;;4880043;29;20039;-88
2021/09/21 08:26:56;;;;;;;9.95;7.40;;;;;;;;;;4871136;29;20119;-87
2021/09/21 08:29:41;;;;;;;9.77;7.20;;;;;;;;;;4880779;29;20035;-85
2021/09/21 08:32:27;;;;;;;9.98;6.10;;;;;;;;;;4882151;29;20032;-88
2021/09/21 08:35:12;;;;;;;10.43;6.88;;;;;;;;;;4880030;29;20040;-85
2021/09/21 08:37:58;;;;;;;10.60;6.63;;;;;;;;;;4868957;29;20036;-85
2021/09/21 08:40:55;;;;;;;9.48;6.65;;;;;;;;;;4879353;29;20373;-85
2021/09/21 08:43:40;;;;;;;9.68;6.57;;;;;;;;;;4832466;29;20049;-89
2021/09/21 08:46:27;;;;;;;9.68;6.63;;;;;;;;;;4845695;29;20481;-85
2021/09/21 08:49:13;;;;;;;8.90;5.80;;;;;;;;;;4839818;29;20033;-86
2021/09/21 08:51:59;;;;;;;7.78;5.57;;;;;;;;;;4828758;29;20058;-89
2021/09/21 08:54:44;;;;;;;8.73;5.93;;;;;;;;;;4853270;29;20037;-88
2021/09/21 08:57:30;;;;;;;7.80;5.80;;;;;;;;;;4853990;29;20049;-89
2021/09/21 09:00:23;;;;;;;7.90;5.30;;;;;;;;;;4849319;29;20037;-87
2021/09/21 09:03:12;;;;;;;6.80;5.50;;;;;;;;;;4845382;29;20108;-86
2021/09/21 09:06:04;;;;;;;7.43;5.68;;;;;;;;;;4845894;29;20025;-88
2021/09/21 09:08:49;;;;;;;8.95;6.03;;;;;;;;;;4853832;29;20028;-86
2021/09/21 09:11:51;;;;;;;7.38;5.63;;;;;;;;;;4846426;29;20021;-87
2021/09/21 09:14:37;;;;;;;9.65;5.40;;;;;;;;;;4844145;29;20033;-87
2021/09/21 09:17:24;;;;;;;9.00;5.40;;;;;;;;;;4855435;29;20084;-88
2021/09/21 09:20:09;;;;;;;9.40;5.75;;;;;;;;;;4845190;29;20061;-88
2021/09/21 09:22:58;;;;;;;8.45;6.40;;;;;;;;;;4843912;29;20476;-86
2021/09/21 09:25:44;;;;;;;6.88;5.78;;;;;;;;;;4849210;29;20048;-87
2021/09/21 09:28:29;;;;;;;7.82;5.80;;;;;;;;;;4845696;29;20480;-88
2021/09/21 09:31:24;;;;;;;7.68;5.50;;;;;;;;;;4844997;29;20037;-88
2021/09/21 09:34:21;;;;;;;7.63;5.43;;;;;;;;;;4854873;29;20021;-87
2021/09/21 09:37:06;;;;;;;8.52;6.72;;;;;;;;;;4839727;29;20485;-88
2021/09/21 09:39:59;;;;;;;8.70;5.88;;;;;;;;;;4841782;29;20033;-87
2021/09/21 09:42:45;;;;;;;7.80;6.35;;;;;;;;;;4858457;29;20045;-89
2021/09/21 09:45:36;;;;;;;10.13;6.13;;;;;;;;;;4862181;29;20056;-89
2021/09/21 09:48:23;;;;;;;9.57;6.95;;;;;;;;;;4857632;29;20535;-88
2021/09/21 09:51:11;;;;;;;8.88;6.35;;;;;;;;;;4862122;29;20033;-89
2021/09/21 09:53:59;;;;;;;7.90;5.75;;;;;;;;;;4856021;29;20392;-83
2021/09/21 09:56:45;;;;;;;8.25;6.45;;;;;;;;;;4863746;29;20060;-86
2021/09/21 09:59:31;;;;;;;9.52;5.57;;;;;;;;;;4866730;29;20020;-91
2021/09/21 10:02:17;;;;;;;9.45;4.93;;;;;;;;;;4864413;29;20088;-89
2021/09/21 10:05:03;;;;;;;9.20;6.97;;;;;;;;;;4869162;29;20048;-92
2021/09/21 10:07:48;;;;;;;7.07;5.47;;;;;;;;;;4862996;29;20407;-85
2021/09/21 10:10:35;;;;;;;7.50;5.53;;;;;;;;;;4865385;29;20025;-90
2021/09/21 10:13:20;;;;;;;8.02;5.07;;;;;;;;;;4880132;29;20191;-92
2021/09/21 10:16:06;;;;;;;9.27;5.15;;;;;;;;;;4852536;29;20029;-90
2021/09/21 10:18:55;;;;;;;6.80;5.32;;;;;;;;;;4873286;29;20032;-91
2021/09/21 10:21:40;;;;;;;6.20;5.60;;;;;;;;;;4866923;29;20033;-90
2021/09/21 10:24:33;;;;;;;7.38;5.22;;;;;;;;;;4865897;29;20236;-90
2021/09/21 10:27:19;;;;;;;5.88;4.93;;;;;;;;;;4869831;29;20029;-89
2021/09/21 10:30:17;;;;;;;7.22;5.13;;;;;;;;;;4871751;29;20029;-93
2021/09/21 10:33:05;;;;;;;8.73;6.03;;;;;;;;;;4870873;29;20077;-94
2021/09/21 10:35:58;;;;;;;6.63;5.13;;;;;;;;;;4861696;29;20028;-91
2021/09/21 10:38:55;;;;;;;6.22;5.13;;;;;;;;;;4859243;29;20088;-90
2021/09/21 10:42:00;;;;;;;6.22;5.00;;;;;;;;;;4863189;29;20025;-87
2021/09/21 10:44:50;;;;;;;8.23;5.45;;;;;;;;;;4861055;29;20034;-83
2021/09/21 10:47:38;;;;;;;7.05;4.95;;;;;;;;;;4866321;29;20041;-86
2021/09/21 10:50:25;;;;;;;6.80;4.68;;;;;;;;;;4869237;29;20033;-83
2021/09/21 10:53:10;;;;;;;7.65;5.53;;;;;;;;;;4861098;29;20037;-85
2021/09/21 10:55:59;;;;;;;6.40;4.97;;;;;;;;;;4875337;29;20399;-87
2021/09/21 10:58:55;;;;;;;6.05;4.97;;;;;;;;;;4878445;29;20920;-87
2021/09/21 11:01:47;;;;;;;7.05;5.03;;;;;;;;;;4866801;29;20013;-88
2021/09/21 11:04:43;;;;;;;8.35;5.57;;;;;;;;;;4871320;29;20544;-88
2021/09/21 11:07:28;;;;;;;6.97;5.20;;;;;;;;;;4855491;29;20495;-90
2021/09/21 11:10:13;;;;;;;7.50;5.30;;;;;;;;;;4866259;29;20028;-88
2021/09/21 11:12:59;;;;;;;8.15;5.72;;;;;;;;;;4866446;29;20033;-89
2021/09/21 11:15:45;;;;;;;6.30;4.88;;;;;;;;;;4864450;29;20064;-88
2021/09/21 11:18:31;;;;;;;7.35;5.55;;;;;;;;;;4865671;29;20021;-91
2021/09/21 11:21:16;;;;;;;8.98;6.15;;;;;;;;;;4864786;29;20017;-89
2021/09/21 11:24:01;;;;;;;6.57;4.97;;;;;;;;;;4863329;29;20027;-90
2021/09/21 11:26:55;;;;;;;6.93;5.85;;;;;;;;;;4876099;29;20054;-89
2021/09/21 11:29:40;;;;;;;7.75;5.65;;;;;;;;;;4873131;29;20040;-90
2021/09/21 11:32:26;;;;;;;9.50;6.15;;;;;;;;;;4867192;29;20538;-89
2021/09/21 11:35:13;;;;;;;8.60;6.28;;;;;;;;;;4858921;29;20104;-88
2021/09/21 11:37:58;;;;;;;8.48;6.20;;;;;;;;;;4861362;29;20226;-90
2021/09/21 11:40:44;;;;;;;8.60;6.43;;;;;;;;;;4858323;29;20029;-89
2021/09/21 11:43:30;;;;;;;10.15;6.72;;;;;;;;;;4871892;29;20079;-92
2021/09/21 11:46:15;;;;;;;9.30;6.43;;;;;;;;;;4866178;29;20035;-89
2021/09/21 11:49:02;;;;;;;8.18;6.55;;;;;;;;;;4864687;29;20361;-89
2021/09/21 11:51:49;;;;;;;7.32;5.95;;;;;;;;;;4867845;29;20032;-90
2021/09/21 11:54:35;;;;;;;8.38;6.57;;;;;;;;;;4869079;29;20721;-91
2021/09/21 11:57:21;;;;;;;7.78;5.63;;;;;;;;;;4867713;29;20124;-92
2021/09/21 12:00:17;;;;;;;9.90;6.75;;;;;;;;;;4877029;29;20068;-91
2021/09/21 12:03:07;;;;;;;9.85;6.13;;;;;;;;;;4850007;29;20040;-90
2021/09/21 12:05:54;;;;;;;8.52;5.57;;;;;;;;;;4865566;29;20689;-88
2021/09/21 12:08:41;;;;;;;7.65;5.70;;;;;;;;;;4877724;29;20032;-92
2021/09/21 12:11:26;;;;;;;8.48;6.20;;;;;;;;;;4866502;29;20036;-91
2021/09/21 12:14:15;;;;;;;10.88;7.03;;;;;;;;;;4867718;29;20025;-90
2021/09/21 12:17:02;;;;;;;9.60;6.82;;;;;;;;;;4864296;29;20056;-92
2021/09/21 12:19:47;;;;;;;8.82;6.88;;;;;;;;;;4870880;29;20268;-89
2021/09/21 12:22:32;;;;;;;10.82;6.80;;;;;;;;;;4884745;29;20056;-91
2021/09/21 12:25:20;;;;;;;7.72;6.30;;;;;;;;;;4887468;29;20485;-93
2021/09/21 12:28:06;;;;;;;12.95;5.93;;;;;;;;;;4885854;29;20037;-92
2021/09/21 12:30:57;;;;;;;10.40;6.28;;;;;;;;;;4885087;29;20183;-94
2021/09/21 12:33:46;;;;;;;9.23;5.90;;;;;;;;;;4885051;29;20032;-92
2021/09/21 12:36:57;;;;;;;10.52;6.40;;;;;;;;;;4893618;29;20029;-92
2021/09/21 12:39:45;;;;;;;9.18;7.07;;;;;;;;;;4879118;29;20028;-92
2021/09/21 12:42:30;;;;;;;8.73;6.47;;;;;;;;;;4882089;29;20075;-90
2021/09/21 12:45:16;;;;;;;11.30;6.88;;;;;;;;;;4873730;29;20069;-91
2021/09/21 12:48:02;;;;;;;9.90;6.50;;;;;;;;;;4907316;29;20024;-90
2021/09/21 12:50:51;;;;;;;9.57;7.18;;;;;;;;;;4897108;29;20066;-90
2021/09/21 12:53:37;;;;;;;8.93;6.70;;;;;;;;;;4886709;29;20076;-91
2021/09/21 12:56:23;;;;;;;9.45;6.93;;;;;;;;;;4865123;29;20033;-91
2021/09/21 12:59:13;;;;;;;9.73;6.80;;;;;;;;;;4869796;29;20054;-89
2021/09/21 13:01:58;;;;;;;9.52;7.00;;;;;;;;;;4863984;29;20033;-89
2021/09/21 13:04:44;;;;;;;7.22;5.72;;;;;;;;;;4859095;29;20182;-90
2021/09/21 13:07:29;;;;;;;9.63;6.35;;;;;;;;;;4862514;29;20039;-90
2021/09/21 13:10:17;;;;;;;8.25;6.03;;;;;;;;;;4866108;29;20028;-93
2021/09/21 13:13:06;;;;;;;7.82;5.80;;;;;;;;;;4861947;29;20151;-89
2021/09/21 13:15:51;;;;;;;;;;;;;;;;;;4856686;29;20029;-89
2021/09/21 13:18:39;;;;;;;9.05;5.95;;;;;;;;;;4870390;29;20298;-91
2021/09/21 13:21:24;;;;;;;7.25;5.90;;;;;;;;;;4863105;29;20041;-89
2021/09/21 13:24:09;;;;;;;10.70;6.68;;;;;;;;;;4878653;29;20048;-88
2021/09/21 13:26:55;;;;;;;8.85;6.90;;;;;;;;;;4867247;29;20048;-88
2021/09/21 13:29:42;;;;;;;10.05;6.60;;;;;;;;;;4859228;29;20081;-85
2021/09/21 13:32:28;;;;;;;9.13;6.68;;;;;;;;;;4851350;29;20032;-88
2021/09/21 13:35:13;;;;;;;10.98;6.75;;;;;;;;;;4875737;29;20041;-87
2021/09/21 13:37:59;;;;;;;9.07;6.63;;;;;;;;;;4861423;29;20487;-89
2021/09/21 13:40:45;;;;;;;12.43;6.65;;;;;;;;;;4875515;29;20036;-90
2021/09/21 13:43:31;;;;;;;7.28;5.80;;;;;;;;;;4858244;29;20052;-90
2021/09/21 13:46:16;;;;;;;7.15;5.50;;;;;;;;;;4862454;29;20045;-88
2021/09/21 13:49:01;;;;;;;10.43;6.35;;;;;;;;;;4861592;29;20570;-87
2021/09/21 13:51:46;;;;;;;8.00;5.18;;;;;;;;;;4880377;29;20068;-87
2021/09/21 13:54:31;;;;;;;7.95;6.32;;;;;;;;;;4869798;29;20034;-89
2021/09/21 13:57:17;;;;;;;8.23;5.38;;;;;;;;;;4854340;29;20036;-88
2021/09/21 14:00:03;;;;;;;12.13;6.75;;;;;;;;;;4860642;29;20029;-87
2021/09/21 14:02:49;;;;;;;8.57;6.45;;;;;;;;;;4865800;29;20047;-91
2021/09/21 14:05:35;;;;;;;8.63;6.13;;;;;;;;;;4862633;29;20463;-90
2021/09/21 14:08:20;;;;;;;9.65;6.03;;;;;;;;;;4867950;29;20025;-90
2021/09/21 14:11:05;;;;;;;7.90;6.03;;;;;;;;;;4857348;29;20036;-89
2021/09/21 14:13:50;;;;;;;7.47;5.72;;;;;;;;;;4862858;29;20055;-89
2021/09/21 14:16:36;;;;;;;8.35;6.50;;;;;;;;;;4862403;29;20036;-89
2021/09/21 14:19:21;;;;;;;11.18;6.10;;;;;;;;;;4869664;29;20511;-78
2021/09/21 14:22:07;;;;;;;7.85;6.22;;;;;;;;;;4878865;29;20032;-84
2021/09/21 14:24:53;;;;;;;9.55;6.38;;;;;;;;;;4859706;29;20036;-86
2021/09/21 14:27:39;;;;;;;8.10;5.78;;;;;;;;;;4859981;29;20033;-87
2021/09/21 14:30:25;;;;;;;9.35;6.07;;;;;;;;;;4877676;29;20578;-86
2021/09/21 14:33:10;;;;;;;11.38;5.72;;;;;;;;;;4867111;29;20028;-90
2021/09/21 14:35:55;;;;;;;9.38;6.05;;;;;;;;;;4880799;29;20036;-85
2021/09/21 14:38:41;;;;;;;9.60;6.57;;;;;;;;;;4881877;29;20116;-82
2021/09/21 14:41:26;;;;;;;10.55;6.78;;;;;;;;;;4868825;29;20561;-83
2021/09/21 14:44:14;;;;;;;9.13;6.10;;;;;;;;;;4881657;29;20789;-86
2021/09/21 14:46:59;;;;;;;10.65;6.10;;;;;;;;;;4873888;29;20099;-84
2021/09/21 14:49:44;;;;;;;9.85;6.53;;;;;;;;;;4865018;29;20150;-85
2021/09/21 14:52:29;;;;;;;10.82;7.20;;;;;;;;;;4864226;29;20749;-85
2021/09/21 14:55:15;;;;;;;9.07;7.00;;;;;;;;;;4857654;29;20552;-85
2021/09/21 14:58:00;;;;;;;8.40;6.13;;;;;;;;;;4867090;29;20032;-84
2021/09/21 15:00:45;;;;;;;7.85;6.25;;;;;;;;;;4862525;29;20095;-84
2021/09/21 15:03:31;;;;;;;7.70;5.47;;;;;;;;;;4861990;29;20393;-85
2021/09/21 15:06:16;;;;;;;8.02;5.70;;;;;;;;;;4869340;29;20021;-85
2021/09/21 15:09:01;;;;;;;8.25;5.95;;;;;;;;;;4863195;29;20376;-85
2021/09/21 15:11:46;;;;;;;8.10;5.50;;;;;;;;;;4862662;29;20064;-85
2021/09/21 15:14:32;;;;;;;8.55;6.55;;;;;;;;;;4868026;29;20032;-85
2021/09/21 15:17:17;;;;;;;10.98;6.13;;;;;;;;;;4860330;29;20087;-84
2021/09/21 15:20:03;;;;;;;9.85;6.13;;;;;;;;;;4859621;29;20033;-84
2021/09/21 15:22:48;;;;;;;8.57;6.40;;;;;;;;;;4876364;29;20151;-84
2021/09/21 15:25:33;;;;;;;8.15;5.93;;;;;;;;;;4846747;29;20029;-84
2021/09/21 15:28:18;;;;;;;7.10;6.00;;;;;;;;;;4865980;29;20412;-84
2021/09/21 15:31:07;;;;;;;7.38;5.80;;;;;;;;;;4869556;29;20037;-84
2021/09/21 15:33:52;;;;;;;7.85;5.53;;;;;;;;;;4863511;29;20428;-85
2021/09/21 15:36:37;;;;;;;8.48;5.53;;;;;;;;;;4855331;29;20085;-85
2021/09/21 15:39:22;;;;;;;9.52;5.90;;;;;;;;;;4863734;29;20434;-82
2021/09/21 15:42:08;;;;;;;9.02;5.40;;;;;;;;;;4859723;29;20650;-85
2021/09/21 15:44:54;;;;;;;7.40;5.97;;;;;;;;;;4863609;29;20105;-84
2021/09/21 15:47:40;;;;;;;14.07;5.40;;;;;;;;;;4860937;29;20036;-84
2021/09/21 15:50:25;;;;;;;7.80;6.38;;;;;;;;;;4874737;29;20025;-84
2021/09/21 15:53:11;;;;;;;7.55;4.78;;;;;;;;;;4858210;29;20029;-85
2021/09/21 15:55:57;;;;;;;7.97;5.38;;;;;;;;;;4863584;29;20024;-83
2021/09/21 15:58:42;;;;;;;7.32;5.65;;;;;;;;;;4874296;29;20515;-84
2021/09/21 16:01:28;;;;;;;8.25;5.68;;;;;;;;;;4861318;29;20029;-83
2021/09/21 16:04:13;;;;;;;9.10;6.05;;;;;;;;;;4863084;29;20057;-84
2021/09/21 16:06:58;;;;;;;7.07;5.05;;;;;;;;;;4862303;29;20077;-83
2021/09/21 16:09:43;;;;;;;9.73;6.35;;;;;;;;;;4862629;29;20032;-86
2021/09/21 16:12:29;;;;;;;7.57;5.35;;;;;;;;;;4864659;29;20052;-85
2021/09/21 16:15:14;;;;;;;7.95;5.45;;;;;;;;;;4863648;29;20140;-85
2021/09/21 16:17:59;;;;;;;9.00;6.45;;;;;;;;;;4862959;29;20025;-84
2021/09/21 16:20:45;;;;;;;10.60;5.55;;;;;;;;;;4863265;29;20048;-85
2021/09/21 16:23:31;;;;;;;11.55;5.97;;;;;;;;;;4865661;29;20369;-86
2021/09/21 16:26:17;;;;;;;7.63;5.45;;;;;;;;;;4875290;29;20048;-84
2021/09/21 16:29:04;;;;;;;8.40;5.45;;;;;;;;;;4864129;29;20097;-88
2021/09/21 16:31:49;;;;;;;9.60;5.72;;;;;;;;;;4866025;29;20076;-87
2021/09/21 16:34:35;;;;;;;10.52;6.05;;;;;;;;;;4862266;29;20527;-85
2021/09/21 16:37:20;;;;;;;6.30;5.32;;;;;;;;;;4864393;29;20490;-90
2021/09/21 16:40:06;;;;;;;8.07;5.85;;;;;;;;;;4863697;29;20040;-85
2021/09/21 16:42:51;;;;;;;7.75;5.40;;;;;;;;;;4872878;29;20084;-83
2021/09/21 16:45:37;;;;;;;6.82;5.20;;;;;;;;;;4860800;29;20029;-87
2021/09/21 16:48:22;;;;;;;9.93;5.65;;;;;;;;;;4862607;29;20021;-88
2021/09/21 16:51:08;;;;;;;6.47;5.40;;;;;;;;;;4865375;29;20040;-93
2021/09/21 16:53:53;;;;;;;6.93;5.18;;;;;;;;;;4849318;29;20036;-88
2021/09/21 16:56:41;;;;;;;8.68;5.72;;;;;;;;;;4856867;29;20040;-91